Time;durP1;ratioP1;P1;durP2;ratioP2;P2;SDS_P1;SDS_P2;PMS_P1;PMS_P2;Temp;Humidity;BMP_temperature;BMP_pressure;BME280_temperature;BME280_humidity;BME280_pressure;Samples;Min_cycle;Max_cycle;Signal;HPM_P1;HPM_P2
2021/09/10 00:04:10;;;;;;;;;;;;;;;15.96;69.21;99942.09;5054855;28;1941;-58
2021/09/10 00:06:36;;;;;;;;;;;;;;;15.94;69.56;99950.91;5054582;28;830;-59
2021/09/10 00:09:02;;;;;;;;;;;;;;;15.91;69.56;99946.97;5054512;28;810;-59
2021/09/10 00:11:29;;;;;;;;;;;;;;;15.89;69.59;99945.84;5036616;28;1197;-59
2021/09/10 00:17:10;;;;;;;;;;;;;;;15.76;70.11;99944.97;5054408;28;696;-59
2021/09/10 00:19:37;;;;;;;;;;;;;;;15.70;70.24;99951.06;5054330;28;896;-59
2021/09/10 00:25:20;;;;;;;;;;;;;;;15.73;70.33;99952.22;5054330;28;612;-59
2021/09/10 00:27:47;;;;;;;;;;;;;;;15.74;70.16;99941.84;5036401;28;1220;-59
2021/09/10 00:30:14;;;;;;;;;;;;;;;15.70;70.33;99951.06;5036551;28;1164;-59
2021/09/10 00:35:45;;;;;;;;;;;;;;;15.67;70.45;99959.50;5052239;28;1242;-59
2021/09/10 00:38:12;;;;;;;;;;;;;;;15.61;70.37;99959.22;5053999;28;783;-59
2021/09/10 00:40:39;;;;;;;;;;;;;;;15.55;70.66;99979.66;5053910;28;858;-59
2021/09/10 00:43:06;;;;;;;;;;;;;;;15.51;71.17;99979.72;5053814;28;1953;-59
2021/09/10 00:45:32;;;;;;;;;;;;;;;15.50;71.18;99983.75;5053847;28;835;-59
2021/09/10 00:47:59;;;;;;;;;;;;;;;15.46;71.05;99983.81;5053685;28;1229;-59
2021/09/10 00:50:25;;;;;;;;;;;;;;;15.39;71.06;99986.00;5053690;28;846;-59
2021/09/10 00:52:52;;;;;;;;;;;;;;;15.28;71.22;99991.78;5053717;28;799;-59
2021/09/10 00:55:25;;;;;;;;;;;;;;;15.16;71.85;99992.44;5035810;28;862;-59
2021/09/10 00:57:52;;;;;;;;;;;;;;;15.13;71.96;99994.09;5053635;28;819;-59
2021/09/10 01:00:18;;;;;;;;;;;;;;;15.18;71.92;99990.00;5054040;28;795;-59
2021/09/10 01:02:45;;;;;;;;;;;;;;;15.24;72.18;99977.16;5053438;28;1902;-59
2021/09/10 01:05:12;;;;;;;;;;;;;;;15.30;72.06;99979.00;5053713;28;836;-59
2021/09/10 01:07:40;;;;;;;;;;;;;;;15.36;71.87;99967.34;5053393;28;798;-59
2021/09/10 01:10:10;;;;;;;;;;;;;;;15.38;71.96;99971.25;5053663;28;846;-59
2021/09/10 01:12:37;;;;;;;;;;;;;;;15.42;71.66;99971.19;5053408;28;906;-59
2021/09/10 01:15:04;;;;;;;;;;;;;;;15.44;71.68;99974.31;5053503;28;994;-59
2021/09/10 01:17:31;;;;;;;;;;;;;;;15.44;71.47;99963.19;5053196;28;862;-59
2021/09/10 01:19:58;;;;;;;;;;;;;;;15.42;71.62;99960.03;5053149;28;850;-59
2021/09/10 01:22:24;;;;;;;;;;;;;;;15.41;71.64;99959.28;5053231;28;874;-59
2021/09/10 01:25:11;;;;;;;;;;;;;;;15.45;71.50;99961.97;5053220;28;1953;-59
2021/09/10 01:27:41;;;;;;;;;;;;;;;15.45;71.55;99948.06;5035415;28;1244;-59
2021/09/10 01:30:08;;;;;;;;;;;;;;;15.46;71.31;99946.81;5053087;28;869;-59
2021/09/10 01:32:34;;;;;;;;;;;;;;;15.46;71.58;99947.59;5052921;28;889;-59
2021/09/10 01:35:00;;;;;;;;;;;;;;;15.46;71.49;99957.97;5034960;28;1386;-59
2021/09/10 01:37:26;;;;;;;;;;;;;;;15.29;71.49;99932.09;5053046;28;811;-59
2021/09/10 01:39:53;;;;;;;;;;;;;;;15.43;71.59;99956.84;5035214;28;1456;-59
2021/09/10 01:42:19;;;;;;;;;;;;;;;15.41;71.61;99964.06;5052960;28;1028;-59
2021/09/10 01:44:45;;;;;;;;;;;;;;;15.41;71.70;99964.84;5035132;28;1894;-59
2021/09/10 01:47:12;;;;;;;;;;;;;;;15.39;71.65;99955.34;5052654;28;839;-59
2021/09/10 01:49:40;;;;;;;;;;;;;;;15.38;71.83;99959.34;5052418;28;1254;-59
2021/09/10 01:52:06;;;;;;;;;;;;;;;15.39;71.59;99958.13;5052925;28;799;-59
2021/09/10 01:54:36;;;;;;;;;;;;;;;15.37;71.78;99950.22;5034915;28;1141;-59
2021/09/10 01:57:03;;;;;;;;;;;;;;;15.39;71.65;99950.56;5052697;28;877;-59
2021/09/10 01:59:29;;;;;;;;;;;;;;;15.38;71.75;99948.19;5052643;28;790;-59
2021/09/10 02:01:59;;;;;;;;;;;;;;;15.38;71.72;99953.78;5052739;28;1002;-59
2021/09/10 02:04:26;;;;;;;;;;;;;;;15.39;71.68;99944.22;5052225;28;1914;-59
2021/09/10 02:06:54;;;;;;;;;;;;;;;15.41;71.80;99952.91;5034456;28;1518;-59
2021/09/10 02:09:20;;;;;;;;;;;;;;;15.37;71.83;99949.44;5052253;28;865;-59
2021/09/10 02:12:11;;;;;;;;;;;;;;;15.37;72.00;99949.44;5052263;28;810;-59
2021/09/10 02:26:48;;;;;;;;;;;;;;;15.21;72.75;99941.81;5052314;28;668;-59
2021/09/10 02:29:15;;;;;;;;;;;;;;;15.22;72.99;99929.47;5052034;28;874;-59
2021/09/10 02:31:47;;;;;;;;;;;;;;;15.23;73.08;99931.78;5052133;28;858;-59
2021/09/10 02:34:13;;;;;;;;;;;;;;;15.28;72.98;99928.53;5051798;28;862;-59
2021/09/10 02:36:40;;;;;;;;;;;;;;;15.29;72.73;99930.06;5052139;28;835;-59
2021/09/10 02:39:07;;;;;;;;;;;;;;;15.31;72.86;99932.44;5051682;28;877;-58
2021/09/10 02:41:38;;;;;;;;;;;;;;;15.29;72.82;99927.28;5051762;28;849;-59
2021/09/10 02:44:05;;;;;;;;;;;;;;;15.32;73.03;99932.00;5051614;28;1898;-59
2021/09/10 02:46:33;;;;;;;;;;;;;;;15.31;72.87;99922.06;5051631;28;874;-59
2021/09/10 02:49:02;;;;;;;;;;;;;;;15.32;72.96;99920.09;5051366;28;1459;-59
2021/09/10 02:51:29;;;;;;;;;;;;;;;15.34;72.98;99925.22;5051604;28;893;-59
2021/09/10 02:53:55;;;;;;;;;;;;;;;15.33;73.00;99921.66;5051422;28;862;-59
2021/09/10 02:56:22;;;;;;;;;;;;;;;15.33;72.98;99921.66;5033630;28;918;-59
2021/09/10 02:58:48;;;;;;;;;;;;;;;15.33;73.16;99916.09;5051529;28;866;-59
2021/09/10 03:01:15;;;;;;;;;;;;;;;15.38;72.97;99914.78;5051460;28;779;-59
2021/09/10 03:15:53;;;;;;;;;;;;;;;15.32;72.86;99915.31;5051752;28;1002;-58
2021/09/10 03:18:20;;;;;;;;;;;;;;;15.34;73.02;99919.66;5051333;28;886;-59
2021/09/10 03:20:46;;;;;;;;;;;;;;;15.32;72.87;99920.88;5051326;28;952;-59
2021/09/10 03:23:12;;;;;;;;;;;;;;;15.34;73.14;99919.66;5051041;28;1902;-58
2021/09/10 03:37:49;;;;;;;;;;;;;;;15.24;73.52;99911.09;5055690;28;605;-58
2021/09/10 03:40:16;;;;;;;;;;;;;;;15.23;73.75;99911.53;5055564;28;821;-59
2021/09/10 03:42:43;;;;;;;;;;;;;;;15.21;73.81;99900.84;5055147;28;861;-58
2021/09/10 03:45:09;;;;;;;;;;;;;;;15.20;74.17;99898.50;5055271;28;2015;-58
2021/09/10 03:47:37;;;;;;;;;;;;;;;15.18;73.97;99901.69;5054617;28;1273;-58
2021/09/10 03:50:04;;;;;;;;;;;;;;;15.15;74.33;99893.41;5055257;28;838;-58
2021/09/10 03:52:35;;;;;;;;;;;;;;;15.10;74.56;99900.28;5054865;28;833;-59
2021/09/10 03:58:11;;;;;;;;;;;;;;;15.04;74.63;99905.59;5054833;28;625;-58
2021/09/10 04:03:54;;;;;;;;;;;;;;;15.06;74.79;99902.34;5054670;28;1968;-58
2021/09/10 04:06:21;;;;;;;;;;;;;;;15.09;74.54;99905.06;5054608;28;803;-58
2021/09/10 04:08:48;;;;;;;;;;;;;;;15.12;74.69;99908.97;5054570;28;855;-58
2021/09/10 04:11:14;;;;;;;;;;;;;;;15.11;74.77;99907.44;5054532;28;898;-58
2021/09/10 04:13:40;;;;;;;;;;;;;;;15.12;74.50;99903.41;5054429;28;885;-58
2021/09/10 04:16:07;;;;;;;;;;;;;;;15.12;74.61;99908.97;5054811;28;971;-58
2021/09/10 04:18:32;;;;;;;;;;;;;;;15.14;74.80;99914.91;5054359;28;823;-58
2021/09/10 04:21:05;;;;;;;;;;;;;;;15.14;74.70;99914.13;5054491;28;882;-58
2021/09/10 04:32:48;;;;;;;;;;;;;;;15.20;74.28;99929.88;5054381;28;625;-58
2021/09/10 04:38:18;;;;;;;;;;;;;;;15.28;74.11;99948.00;5054109;28;621;-58
2021/09/10 04:40:44;;;;;;;;;;;;;;;15.31;74.12;99941.56;5054143;28;862;-58
2021/09/10 04:43:11;;;;;;;;;;;;;;;15.35;73.88;99937.94;5053898;28;1953;-58
2021/09/10 04:45:38;;;;;;;;;;;;;;;15.38;73.96;99934.28;5052623;28;877;-58
2021/09/10 04:58:07;;;;;;;;;;;;;;;15.66;72.99;99930.84;5049019;28;1660;-59
2021/09/10 05:00:34;;;;;;;;;;;;;;;15.77;72.71;99925.03;5033700;28;807;-58
2021/09/10 05:03:00;;;;;;;;;;;;;;;15.87;72.53;99929.59;5033472;28;1985;-58
2021/09/10 05:05:27;;;;;;;;;;;;;;;15.95;72.22;99932.97;5033735;28;886;-58
2021/09/10 05:07:54;;;;;;;;;;;;;;;16.03;71.74;99934.34;5033474;28;819;-58
2021/09/10 05:18:41;;;;;;;;;;;;;;;16.43;70.71;99931.34;5053379;28;628;-53
2021/09/10 05:21:07;;;;;;;;;;;;;;;16.52;70.32;99934.25;5053302;28;858;-53
2021/09/10 05:23:34;;;;;;;;;;;;;;;16.58;70.04;99930.94;5053347;28;1971;-54
2021/09/10 05:26:09;;;;;;;;;;;;;;;16.65;69.76;99936.31;5053223;28;880;-53
2021/09/10 05:28:39;;;;;;;;;;;;;;;16.72;69.59;99938.91;5053257;28;905;-53
2021/09/10 05:31:06;;;;;;;;;;;;;;;16.79;69.09;99940.72;5053273;28;888;-54
2021/09/10 05:33:33;;;;;;;;;;;;;;;16.88;68.70;99943.69;5052994;28;861;-54
2021/09/10 05:35:59;;;;;;;;;;;;;;;16.96;68.43;99939.44;5053041;28;876;-54
2021/09/10 05:38:27;;;;;;;;;;;;;;;17.00;68.22;99945.72;5052909;28;868;-54
2021/09/10 05:40:54;;;;;;;;;;;;;;;17.01;68.37;99940.94;5053046;28;865;-54
2021/09/10 05:43:23;;;;;;;;;;;;;;;17.06;68.07;99951.53;5052776;28;1961;-54
2021/09/10 05:45:50;;;;;;;;;;;;;;;17.09;67.88;99947.84;5052605;28;873;-54
2021/09/10 06:00:28;;;;;;;;;;;;;;;17.82;65.36;99931.28;5052815;28;627;-54
2021/09/10 06:02:54;;;;;;;;;;;;;;;18.01;64.62;99932.25;5052381;28;1898;-54
2021/09/10 06:05:26;;;;;;;;;;;;;;;18.11;64.37;99938.69;5052388;28;975;-55
2021/09/10 06:07:52;;;;;;;;;;;;;;;18.11;63.98;99936.69;5052361;28;1115;-55
2021/09/10 06:22:54;;;;;;;;;;;;;;;17.81;64.86;99940.06;5086437;28;1984;-53
2021/09/10 06:37:34;;;;;;;;;;;;;;;17.93;64.53;99959.66;5092494;28;616;-54
2021/09/10 06:40:02;;;;;;;;;;;;;;;18.01;64.33;99963.00;5073767;28;1833;-54
2021/09/10 06:42:29;;;;;;;;;;;;;;;18.11;64.15;99961.06;5092336;28;810;-53
2021/09/10 06:44:56;;;;;;;;;;;;;;;18.09;64.05;99971.94;5091758;28;1906;-54
2021/09/10 06:47:24;;;;;;;;;;;;;;;18.11;63.59;99964.66;5092059;28;885;-54
2021/09/10 06:49:53;;;;;;;;;;;;;;;18.16;63.59;99966.91;5091786;28;897;-54
2021/09/10 06:52:20;;;;;;;;;;;;;;;18.26;63.17;99969.78;5091810;28;833;-53
2021/09/10 06:54:47;;;;;;;;;;;;;;;18.40;62.86;99980.50;5091849;28;806;-55
2021/09/10 06:57:14;;;;;;;;;;;;;;;18.68;62.39;99980.72;5091838;28;904;-54
2021/09/10 06:59:40;;;;;;;;;;;;;;;18.68;61.27;99986.31;5091750;28;936;-53
2021/09/10 07:02:06;;;;;;;;;;;;;;;18.57;61.61;99986.72;5091771;28;864;-53
2021/09/10 07:04:35;;;;;;;;;;;;;;;18.61;61.50;99978.97;5091581;28;1878;-55
2021/09/10 07:07:02;;;;;;;;;;;;;;;18.68;61.05;99991.94;5091525;28;873;-55
2021/09/10 07:09:34;;;;;;;;;;;;;;;18.66;60.53;99997.97;5091106;28;842;-52
2021/09/10 07:12:02;;;;;;;;;;;;;;;18.57;60.89;99995.88;5091556;28;918;-54
2021/09/10 07:14:29;;;;;;;;;;;;;;;18.57;60.77;100004.28;5091384;28;982;-54
2021/09/10 07:16:56;;;;;;;;;;;;;;;18.64;60.63;99997.66;5091613;28;997;-54
2021/09/10 07:19:21;;;;;;;;;;;;;;;18.76;60.07;99980.03;5091612;28;865;-55
2021/09/10 07:21:56;;;;;;;;;;;;;;;18.92;60.06;99986.69;5089846;28;1315;-55
2021/09/10 07:24:21;;;;;;;;;;;;;;;19.15;59.84;99994.63;5091726;28;1959;-55
2021/09/10 07:26:51;;;;;;;;;;;;;;;19.47;59.36;99987.03;5091544;28;821;-55
2021/09/10 07:29:19;;;;;;;;;;;;;;;19.58;57.71;99983.81;5091903;28;818;-54
2021/09/10 07:31:47;;;;;;;;;;;;;;;19.40;57.76;99990.13;5091642;28;944;-55
2021/09/10 07:34:13;;;;;;;;;;;;;;;19.35;58.37;100005.50;5091547;28;909;-55
2021/09/10 07:36:40;;;;;;;;;;;;;;;19.30;58.58;99988.50;5091657;28;798;-55
2021/09/10 07:39:06;;;;;;;;;;;;;;;19.46;57.56;99979.06;5091973;28;841;-54
2021/09/10 07:41:33;;;;;;;;;;;;;;;19.51;57.86;99981.31;5091752;28;853;-55
2021/09/10 07:43:59;;;;;;;;;;;;;;;19.70;57.77;99980.16;5091587;28;1890;-55
2021/09/10 07:46:26;;;;;;;;;;;;;;;19.92;57.19;99980.06;5073074;28;1329;-55
2021/09/10 07:48:53;;;;;;;;;;;;;;;20.04;57.24;99997.28;5091377;28;837;-55
2021/09/10 07:51:19;;;;;;;;;;;;;;;20.07;56.17;99977.47;5091266;28;854;-55
2021/09/10 07:53:46;;;;;;;;;;;;;;;19.89;56.06;99992.22;5091289;28;798;-55
2021/09/10 07:56:13;;;;;;;;;;;;;;;19.70;56.50;99997.00;5091220;28;805;-55
2021/09/10 07:58:39;;;;;;;;;;;;;;;19.53;56.98;99998.44;5091124;28;906;-55
2021/09/10 08:01:06;;;;;;;;;;;;;;;19.65;56.97;99993.97;5091173;28;869;-55
2021/09/10 08:03:34;;;;;;;;;;;;;;;19.70;56.63;99991.38;5091024;28;1918;-55
2021/09/10 08:06:00;;;;;;;;;;;;;;;19.66;56.69;99998.34;5091066;28;822;-55
2021/09/10 08:08:26;;;;;;;;;;;;;;;19.48;56.52;100004.63;5091049;28;880;-53
2021/09/10 08:10:53;;;;;;;;;;;;;;;19.36;56.89;100001.47;5091083;28;877;-54
2021/09/10 08:13:19;;;;;;;;;;;;;;;19.30;57.05;99997.69;5090821;28;914;-52
2021/09/10 08:15:46;;;;;;;;;;;;;;;19.37;57.17;99999.44;5091107;28;1004;-54
2021/09/10 08:18:13;;;;;;;;;;;;;;;19.47;56.81;99997.47;5091062;28;892;-51
2021/09/10 08:20:41;;;;;;;;;;;;;;;19.50;56.56;99993.75;5092980;28;942;-54
2021/09/10 08:26:10;;;;;;;;;;;;;;;19.69;56.34;99998.19;5094659;28;600;-55
2021/09/10 08:28:36;;;;;;;;;;;;;;;19.90;55.88;99999.41;5094491;28;941;-54
2021/09/10 08:34:05;;;;;;;;;;;;;;;20.12;55.25;99990.91;5094516;28;612;-53
2021/09/10 08:36:32;;;;;;;;;;;;;;;20.23;54.50;99989.66;5094381;28;925;-54
2021/09/10 08:39:00;;;;;;;;;;;;;;;20.40;54.59;99985.34;5094318;28;937;-56
2021/09/10 08:41:27;;;;;;;;;;;;;;;20.58;53.89;99984.59;5094464;28;901;-55
2021/09/10 08:43:57;;;;;;;;;;;;;;;20.76;52.81;99986.63;5094034;28;1944;-55
2021/09/10 08:46:24;;;;;;;;;;;;;;;20.78;52.55;99979.31;5094038;28;861;-55
2021/09/10 08:48:52;;;;;;;;;;;;;;;20.90;52.40;99979.59;5094494;28;869;-55
2021/09/10 09:15:40;;;;;;;;;;;;;;;21.45;50.49;99987.94;5093980;28;1057;-55
2021/09/10 09:18:07;;;;;;;;;;;;;;;21.53;50.18;99974.31;5093732;28;1189;-56
2021/09/10 09:20:37;;;;;;;;;;;;;;;21.67;49.93;99981.31;5093534;28;853;-56
2021/09/10 09:23:04;;;;;;;;;;;;;;;21.91;49.34;99981.34;5092937;28;1973;-56
2021/09/10 09:25:34;;;;;;;;;;;;;;;22.21;48.98;99988.69;5093555;28;805;-56
2021/09/10 09:28:19;;;;;;;;;;;;;;;22.52;48.33;99989.59;5075426;28;885;-55
2021/09/10 09:30:46;;;;;;;;;;;;;;;22.90;47.51;99976.78;5093602;28;842;-56
2021/09/10 09:33:14;;;;;;;;;;;;;;;23.41;46.60;99982.06;5093149;28;774;-56
2021/09/10 09:35:42;;;;;;;;;;;;;;;23.97;45.37;99970.13;5093216;28;854;-56
2021/09/10 09:38:15;;;;;;;;;;;;;;;24.19;44.39;99980.94;5093219;28;912;-56
2021/09/10 09:40:42;;;;;;;;;;;;;;;24.33;43.88;99982.94;5092982;28;917;-56
2021/09/10 09:43:17;;;;;;;;;;;;;;;24.15;44.09;99977.53;5093207;28;1886;-56
2021/09/10 09:45:52;;;;;;;;;;;;;;;23.97;44.55;99984.22;5092942;28;948;-56
2021/09/10 09:48:21;;;;;;;;;;;;;;;24.09;44.37;99974.66;5074876;28;1112;-56
2021/09/10 09:50:50;;;;;;;;;;;;;;;24.36;42.94;99973.47;5092962;28;802;-56
2021/09/10 09:53:17;;;;;;;;;;;;;;;24.38;43.22;99975.78;5092685;28;834;-56
2021/09/10 09:55:45;;;;;;;;;;;;;;;24.56;43.00;99969.91;5092887;28;841;-56
2021/09/10 09:58:14;;;;;;;;;;;;;;;24.94;42.23;99970.03;5092647;28;901;-56
2021/09/10 10:00:41;;;;;;;;;;;;;;;25.36;41.55;99965.81;5092624;28;865;-56
2021/09/10 10:03:08;;;;;;;;;;;;;;;25.51;40.88;99962.84;5092688;28;1894;-56
2021/09/10 10:05:46;;;;;;;;;;;;;;;25.01;41.13;99972.44;5092642;28;869;-56
2021/09/10 10:08:16;;;;;;;;;;;;;;;24.70;41.59;99962.59;5092893;28;901;-56
2021/09/10 10:10:47;;;;;;;;;;;;;;;24.42;42.28;99957.34;5092473;28;838;-56
2021/09/10 10:13:18;;;;;;;;;;;;;;;24.58;42.38;99958.06;5092524;28;826;-56
2021/09/10 10:15:45;;;;;;;;;;;;;;;24.89;42.41;99953.81;5092670;28;952;-56
2021/09/10 10:18:32;;;;;;;;;;;;;;;25.37;41.37;99948.38;5092450;28;904;-56
2021/09/10 10:20:59;;;;;;;;;;;;;;;25.76;40.68;99953.53;5092303;28;1484;-56
2021/09/10 10:23:45;;;;;;;;;;;;;;;25.82;39.68;99945.84;5092125;28;1987;-56
2021/09/10 10:26:13;;;;;;;;;;;;;;;25.62;40.01;99958.03;5092155;28;1013;-56
2021/09/10 10:28:43;;;;;;;;;;;;;;;25.36;39.38;99960.16;5092182;28;963;-56
2021/09/10 10:31:11;;;;;;;;;;;;;;;25.20;39.36;99962.34;5092152;28;882;-56
2021/09/10 10:33:47;;;;;;;;;;;;;;;25.36;39.38;99955.28;5092113;28;850;-56
2021/09/10 10:36:31;;;;;;;;;;;;;;;25.46;39.51;99948.16;5092188;28;890;-56
2021/09/10 10:39:13;;;;;;;;;;;;;;;25.61;39.04;99945.19;5091907;28;980;-56
2021/09/10 10:41:50;;;;;;;;;;;;;;;25.86;38.72;99939.94;5092049;28;881;-56
2021/09/10 10:44:31;;;;;;;;;;;;;;;25.82;38.86;99950.75;5091210;28;1984;-56
2021/09/10 10:47:08;;;;;;;;;;;;;;;25.79;37.53;99946.06;5091925;28;865;-56
2021/09/10 10:49:41;;;;;;;;;;;;;;;25.42;37.93;99944.03;5091954;28;904;-56
2021/09/10 10:52:34;;;;;;;;;;;;;;;25.38;37.64;99949.13;5091806;28;864;-56
2021/09/10 10:55:21;;;;;;;;;;;;;;;25.21;37.66;99941.28;5088210;28;2061;-56
2021/09/10 10:57:49;;;;;;;;;;;;;;;25.01;38.18;99932.84;5091711;28;1656;-55
2021/09/10 11:00:31;;;;;;;;;;;;;;;25.15;37.85;99946.06;5091731;28;1021;-56
2021/09/10 11:03:16;;;;;;;;;;;;;;;24.87;38.13;99942.97;5091808;28;865;-53
2021/09/10 11:05:44;;;;;;;;;;;;;;;25.04;37.94;99943.91;5091547;28;953;-55
2021/09/10 11:08:11;;;;;;;;;;;;;;;25.10;37.86;99940.38;5091680;28;869;-55
2021/09/10 11:10:38;;;;;;;;;;;;;;;25.06;38.22;99938.53;5091857;28;834;-55
2021/09/10 11:13:07;;;;;;;;;;;;;;;24.97;38.62;99927.41;5091713;28;865;-55
2021/09/10 11:15:37;;;;;;;;;;;;;;;24.88;38.18;99932.44;5091773;28;928;-55
2021/09/10 11:18:04;;;;;;;;;;;;;;;24.77;37.59;99939.56;5091557;28;929;-55
2021/09/10 11:20:30;;;;;;;;;;;;;;;24.50;37.54;99937.97;5091436;28;956;-55
2021/09/10 11:22:57;;;;;;;;;;;;;;;24.21;38.21;99944.50;5091128;28;1258;-55
2021/09/10 11:25:24;;;;;;;;;;;;;;;24.32;38.40;99952.34;5073621;28;1914;-54
2021/09/10 11:27:54;;;;;;;;;;;;;;;24.37;38.31;99949.59;5091394;28;966;-55
2021/09/10 11:30:22;;;;;;;;;;;;;;;24.45;38.26;99939.44;5091461;28;865;-55
2021/09/10 11:32:58;;;;;;;;;;;;;;;24.36;37.71;99935.97;5091318;28;1056;-55
2021/09/10 11:35:26;;;;;;;;;;;;;;;24.34;37.97;99941.34;5091325;28;885;-55
2021/09/10 11:37:54;;;;;;;;;;;;;;;24.22;37.71;99938.38;5091326;28;1254;-54
2021/09/10 11:40:30;;;;;;;;;;;;;;;24.25;38.06;99936.63;5091397;28;865;-55
2021/09/10 11:43:08;;;;;;;;;;;;;;;24.39;38.17;99924.47;5073290;28;897;-55
2021/09/10 11:45:38;;;;;;;;;;;;;;;24.64;38.23;99934.28;5091406;28;846;-56
2021/09/10 11:48:05;;;;;;;;;;;;;;;25.01;37.83;99932.84;5091298;28;901;-56
2021/09/10 11:50:48;;;;;;;;;;;;;;;25.05;37.61;99924.94;5091305;28;893;-56
2021/09/10 11:53:19;;;;;;;;;;;;;;;24.94;38.10;99922.75;5091176;28;921;-56
2021/09/10 11:55:59;;;;;;;;;;;;;;;24.91;38.25;99925.81;5093814;28;813;-56
2021/09/10 11:58:33;;;;;;;;;;;;;;;25.13;38.27;99931.66;5095382;28;897;-56
2021/09/10 12:01:19;;;;;;;;;;;;;;;25.07;38.04;99933.66;5095247;28;850;-56
2021/09/10 12:03:48;;;;;;;;;;;;;;;24.79;38.68;99913.59;5094834;28;1947;-56
2021/09/10 12:06:19;;;;;;;;;;;;;;;24.65;39.41;99920.94;5094787;28;945;-55
2021/09/10 12:09:04;;;;;;;;;;;;;;;24.55;38.80;99922.34;5094692;28;956;-54
2021/09/10 12:11:30;;;;;;;;;;;;;;;24.37;39.25;99915.72;5076674;28;1248;-54
2021/09/10 12:13:57;;;;;;;;;;;;;;;24.32;39.32;99912.81;5094994;28;791;-54
2021/09/10 12:16:23;;;;;;;;;;;;;;;24.42;39.19;99919.88;5095185;28;903;-55
2021/09/10 12:19:02;;;;;;;;;;;;;;;24.17;39.63;99915.72;5094696;28;869;-55
2021/09/10 12:21:31;;;;;;;;;;;;;;;24.04;40.00;99918.88;5076021;28;2188;-54
2021/09/10 12:24:10;;;;;;;;;;;;;;;24.34;39.72;99915.91;5094557;28;1926;-54
2021/09/10 12:26:47;;;;;;;;;;;;;;;24.56;39.45;99915.41;5094518;28;877;-54
2021/09/10 12:29:17;;;;;;;;;;;;;;;24.34;39.77;99915.91;5094537;28;900;-54
2021/09/10 12:31:44;;;;;;;;;;;;;;;24.16;40.27;99911.34;5094562;28;801;-53
2021/09/10 12:34:11;;;;;;;;;;;;;;;24.24;40.38;99901.94;5094645;28;855;-52
2021/09/10 12:36:37;;;;;;;;;;;;;;;24.43;40.11;99902.44;5094605;28;794;-54
2021/09/10 12:39:04;;;;;;;;;;;;;;;24.30;39.99;99898.41;5094530;28;892;-54
2021/09/10 12:41:31;;;;;;;;;;;;;;;24.16;40.02;99894.41;5094409;28;1195;-54
2021/09/10 12:43:58;;;;;;;;;;;;;;;24.32;39.97;99896.63;5094752;28;1914;-54
2021/09/10 12:46:25;;;;;;;;;;;;;;;24.44;39.71;99898.31;5095007;28;793;-54
2021/09/10 12:48:51;;;;;;;;;;;;;;;24.48;39.48;99897.34;5094342;28;841;-53
2021/09/10 12:51:19;;;;;;;;;;;;;;;24.53;39.29;99894.59;5094711;28;845;-55
2021/09/10 12:53:45;;;;;;;;;;;;;;;24.70;39.25;99894.00;5059437;28;1322;-54
2021/09/10 12:56:12;;;;;;;;;;;;;;;24.84;38.96;99896.72;5094151;28;833;-55
2021/09/10 12:58:39;;;;;;;;;;;;;;;24.81;38.42;99900.53;5094335;28;873;-54
2021/09/10 13:01:05;;;;;;;;;;;;;;;24.44;38.47;99900.38;5094211;28;845;-55
2021/09/10 13:03:31;;;;;;;;;;;;;;;24.32;37.82;99896.63;5093799;28;1893;-55
2021/09/10 13:05:58;;;;;;;;;;;;;;;24.18;38.08;99892.63;5093246;28;896;-54
2021/09/10 13:08:24;;;;;;;;;;;;;;;24.21;37.95;99896.50;5093339;28;858;-55
2021/09/10 13:10:50;;;;;;;;;;;;;;;24.24;37.93;99893.47;5093705;28;806;-54
2021/09/10 13:13:17;;;;;;;;;;;;;;;24.17;37.17;99890.31;5093720;28;790;-54
2021/09/10 13:15:45;;;;;;;;;;;;;;;23.98;37.07;99886.97;5093814;28;986;-55
2021/09/10 13:30:48;;;;;;;;;;;;;;;23.76;38.42;99896.69;5053189;28;688;-55
2021/09/10 13:33:15;;;;;;;;;;;;;;;23.75;38.56;99889.50;5053034;28;964;-54
2021/09/10 13:35:42;;;;;;;;;;;;;;;23.81;38.58;99898.03;5053030;28;830;-55
2021/09/10 13:38:08;;;;;;;;;;;;;;;23.84;38.50;99895.03;5052849;28;826;-53
2021/09/10 13:40:35;;;;;;;;;;;;;;;23.76;38.27;99888.25;5052908;28;984;-54
2021/09/10 13:43:01;;;;;;;;;;;;;;;23.74;38.70;99892.78;5052893;28;810;-53
2021/09/10 13:45:28;;;;;;;;;;;;;;;23.73;38.66;99891.25;5052849;28;1913;-54
2021/09/10 13:47:54;;;;;;;;;;;;;;;23.72;38.46;99898.94;5051458;28;2210;-53
2021/09/10 13:50:21;;;;;;;;;;;;;;;23.76;38.44;99895.94;5052792;28;857;-54
2021/09/10 13:52:51;;;;;;;;;;;;;;;23.84;38.05;99892.19;5052681;28;873;-54
2021/09/10 13:55:18;;;;;;;;;;;;;;;23.74;38.08;99893.56;5052611;28;986;-54
2021/09/10 13:57:44;;;;;;;;;;;;;;;23.71;38.01;99900.22;5052538;28;850;-54
2021/09/10 14:00:11;;;;;;;;;;;;;;;23.72;37.91;99906.63;5052490;28;834;-53
2021/09/10 14:02:36;;;;;;;;;;;;;;;23.69;38.04;99887.88;5052490;28;874;-53
2021/09/10 14:05:03;;;;;;;;;;;;;;;23.71;38.22;99891.75;5052364;28;1941;-53
2021/09/10 14:07:30;;;;;;;;;;;;;;;23.88;38.05;99891.22;5052280;28;866;-54
2021/09/10 14:09:57;;;;;;;;;;;;;;;23.88;37.59;99891.22;5052362;28;810;-55
2021/09/10 14:12:24;;;;;;;;;;;;;;;23.76;37.56;99895.94;5052324;28;838;-53
2021/09/10 14:14:51;;;;;;;;;;;;;;;23.70;37.65;99895.81;5051275;28;976;-53
2021/09/10 14:17:18;;;;;;;;;;;;;;;23.55;37.55;99893.03;5052084;28;1027;-55
2021/09/10 14:19:45;;;;;;;;;;;;;;;23.42;37.61;99898.22;5052197;28;934;-53
2021/09/10 14:22:11;;;;;;;;;;;;;;;23.37;37.31;99887.66;5052170;28;889;-55
2021/09/10 14:24:38;;;;;;;;;;;;;;;23.24;37.39;99888.75;5051953;28;1951;-54
2021/09/10 14:27:05;;;;;;;;;;;;;;;23.14;37.51;99883.69;5052053;28;927;-54
2021/09/10 14:29:32;;;;;;;;;;;;;;;23.06;37.20;99893.81;5065103;28;1397;-54
2021/09/10 14:32:00;;;;;;;;;;;;;;;23.02;37.57;99891.19;5092159;28;858;-53
2021/09/10 14:34:30;;;;;;;;;;;;;;;22.99;37.68;99890.09;5092210;28;889;-54
2021/09/10 14:36:57;;;;;;;;;;;;;;;22.93;37.55;99894.84;5092019;28;955;-54
2021/09/10 14:39:24;;;;;;;;;;;;;;;22.88;37.95;99886.31;5091966;28;1081;-54
2021/09/10 14:41:51;;;;;;;;;;;;;;;22.77;37.76;99886.91;5092051;28;900;-54
2021/09/10 14:44:17;;;;;;;;;;;;;;;22.63;38.07;99883.56;5091845;28;1917;-54
2021/09/10 14:46:44;;;;;;;;;;;;;;;22.56;38.08;99883.19;5091964;28;1129;-53
2021/09/10 14:49:11;;;;;;;;;;;;;;;22.53;38.24;99887.75;5091848;28;973;-54
2021/09/10 14:51:37;;;;;;;;;;;;;;;22.53;38.30;99886.94;5091966;28;838;-53
2021/09/10 14:54:04;;;;;;;;;;;;;;;22.49;38.83;99887.16;5091838;28;838;-54
2021/09/10 14:56:32;;;;;;;;;;;;;;;22.47;39.01;99884.03;5092081;28;894;-54
2021/09/10 14:59:08;;;;;;;;;;;;;;;22.49;39.01;99887.16;5091663;28;1261;-53
2021/09/10 15:01:36;;;;;;;;;;;;;;;22.42;38.95;99899.56;5091732;28;873;-54
2021/09/10 15:04:02;;;;;;;;;;;;;;;22.32;38.46;99888.84;5091541;28;1910;-52
2021/09/10 15:06:29;;;;;;;;;;;;;;;22.24;39.10;99891.28;5091629;28;798;-52
2021/09/10 15:08:57;;;;;;;;;;;;;;;22.20;38.93;99888.59;5091744;28;529;-53
2021/09/10 15:11:23;;;;;;;;;;;;;;;22.15;39.09;99892.09;5091666;28;846;-50
2021/09/10 15:13:50;;;;;;;;;;;;;;;22.11;39.19;99885.09;5091602;28;1331;-53
2021/09/10 15:16:17;;;;;;;;;;;;;;;22.03;39.02;99879.81;5091828;28;1060;-53
2021/09/10 15:18:44;;;;;;;;;;;;;;;21.95;38.91;99889.09;5091499;28;1195;-55
2021/09/10 15:21:11;;;;;;;;;;;;;;;21.87;38.83;99882.28;5091798;28;897;-54
2021/09/10 15:23:37;;;;;;;;;;;;;;;21.79;38.80;99882.63;5091340;28;1941;-53
2021/09/10 15:26:03;;;;;;;;;;;;;;;21.73;38.71;99878.91;5091916;28;874;-53
2021/09/10 15:28:30;;;;;;;;;;;;;;;21.67;39.23;99886.44;5091090;28;1439;-54
2021/09/10 15:30:56;;;;;;;;;;;;;;;21.61;40.05;99883.53;5094328;28;865;-53
2021/09/10 15:33:22;;;;;;;;;;;;;;;21.53;40.80;99882.31;5095607;28;944;-51
2021/09/10 15:35:49;;;;;;;;;;;;;;;21.40;41.42;99887.34;5095733;28;941;-53
2021/09/10 15:38:16;;;;;;;;;;;;;;;21.28;41.53;99885.53;5096079;28;806;-53
2021/09/10 15:40:43;;;;;;;;;;;;;;;21.23;41.07;99884.16;5095730;28;882;-54
2021/09/10 15:43:10;;;;;;;;;;;;;;;21.18;41.48;99882.75;5095835;28;763;-54
2021/09/10 15:45:38;;;;;;;;;;;;;;;21.09;41.49;99877.16;5095444;28;1914;-54
2021/09/10 15:48:04;;;;;;;;;;;;;;;20.99;41.99;99881.25;5095441;28;934;-53
2021/09/10 15:50:31;;;;;;;;;;;;;;;20.85;41.85;99868.66;5095530;28;831;-54
2021/09/10 15:52:58;;;;;;;;;;;;;;;20.74;42.60;99883.19;5095518;28;877;-53
2021/09/10 15:55:25;;;;;;;;;;;;;;;20.53;43.21;99879.28;5095532;28;806;-53
2021/09/10 15:57:52;;;;;;;;;;;;;;;20.40;43.30;99873.84;5095296;28;874;-53